createdAt,value
2023-03-16T00:00:04.527Z,20.6530
2023-03-16T00:00:15.583Z,20.6430
2023-03-16T00:00:26.972Z,20.6330
2023-03-16T00:00:38.332Z,20.6530
2023-03-16T00:00:49.402Z,20.6430
2023-03-16T00:01:00.479Z,20.6430
2023-03-16T00:01:11.561Z,20.6480
2023-03-16T00:01:22.618Z,20.6440
2023-03-16T00:01:33.732Z,20.6290
2023-03-16T00:01:44.881Z,20.6390
2023-03-16T00:01:56.054Z,20.6390
2023-03-16T00:02:07.198Z,20.6390
2023-03-16T00:02:18.288Z,20.6440
2023-03-16T00:02:29.339Z,20.6130
2023-03-16T00:02:40.410Z,20.6240
2023-03-16T00:02:51.503Z,20.6030
2023-03-16T00:03:02.677Z,20.6060
2023-03-16T00:03:13.811Z,20.6170
2023-03-16T00:03:24.956Z,20.6230
2023-03-16T00:03:36.115Z,20.6120
2023-03-16T00:03:47.176Z,20.6170
2023-03-16T00:03:58.247Z,20.6060
2023-03-16T00:04:09.314Z,20.6060
2023-03-16T00:04:20.394Z,20.6010
2023-03-16T00:04:31.465Z,20.6010
2023-03-16T00:04:42.521Z,20.6010
2023-03-16T00:04:53.608Z,20.6060
2023-03-16T00:05:04.751Z,20.6010
2023-03-16T00:05:15.825Z,20.6170
2023-03-16T00:05:26.874Z,20.6230
2023-03-16T00:05:37.925Z,20.6170
2023-03-16T00:05:48.976Z,20.6060
2023-03-16T00:06:00.038Z,20.6170
2023-03-16T00:06:11.080Z,20.6010
2023-03-16T00:06:24.514Z,20.5810
2023-03-16T00:06:36.591Z,20.6480
2023-03-16T00:06:47.659Z,20.6170
2023-03-16T00:06:58.736Z,20.6120
2023-03-16T00:07:09.804Z,20.6010
2023-03-16T00:07:20.830Z,20.5910
2023-03-16T00:07:31.893Z,20.5810
2023-03-16T00:07:42.971Z,20.5930
2023-03-16T00:08:01.025Z,20.5820
2023-03-16T00:08:12.085Z,20.6990
2023-03-16T00:08:30.678Z,20.6430
2023-03-16T00:08:49.216Z,20.7400
2023-03-16T00:09:00.270Z,20.7430
2023-03-16T00:09:11.321Z,20.6560
2023-03-16T00:09:22.385Z,20.6230
2023-03-16T00:09:33.467Z,20.5810
2023-03-16T00:09:44.498Z,20.5910
2023-03-16T00:09:55.586Z,20.5860
2023-03-16T00:10:06.717Z,20.5710
2023-03-16T00:10:17.869Z,20.5860
2023-03-16T00:10:29.310Z,20.5720
2023-03-16T00:10:40.556Z,20.5820
2023-03-16T00:10:51.640Z,20.5770
2023-03-16T00:11:02.732Z,20.5670
2023-03-16T00:11:13.825Z,20.5570
2023-03-16T00:11:24.922Z,20.5470
2023-03-16T00:11:35.977Z,20.5260
2023-03-16T00:11:47.039Z,20.5210
2023-03-16T00:11:58.089Z,20.5260
2023-03-16T00:12:09.176Z,20.5310
2023-03-16T00:12:20.336Z,20.5260
2023-03-16T00:12:31.395Z,20.5260
2023-03-16T00:12:42.440Z,20.5360
2023-03-16T00:12:53.528Z,20.5360
2023-03-16T00:13:04.613Z,20.5150
2023-03-16T00:13:15.686Z,20.5100
2023-03-16T00:13:26.752Z,20.5210
2023-03-16T00:13:37.817Z,20.5050
2023-03-16T00:13:48.884Z,20.5310
2023-03-16T00:13:59.950Z,20.5260
2023-03-16T00:14:11.013Z,20.5260
2023-03-16T00:14:22.072Z,20.5050
2023-03-16T00:14:33.159Z,20.4950
2023-03-16T00:14:44.363Z,20.4950
2023-03-16T00:14:55.457Z,20.4950
2023-03-16T00:15:06.495Z,20.5150
2023-03-16T00:15:17.619Z,20.5210
2023-03-16T00:15:28.718Z,20.5150
2023-03-16T00:15:39.784Z,20.5100
2023-03-16T00:15:50.874Z,20.5210
2023-03-16T00:16:01.996Z,20.4950
2023-03-16T00:16:13.051Z,20.4900
2023-03-16T00:16:24.178Z,20.4950
2023-03-16T00:16:35.258Z,20.5000
2023-03-16T00:16:46.411Z,20.4900
2023-03-16T00:16:57.512Z,20.5050
2023-03-16T00:17:09.031Z,20.5050
2023-03-16T00:17:20.502Z,20.4900
2023-03-16T00:17:31.763Z,20.5050
2023-03-16T00:17:42.814Z,20.5000
2023-03-16T00:17:53.879Z,20.4890
2023-03-16T00:18:04.935Z,20.4840
2023-03-16T00:18:16.000Z,20.5000
2023-03-16T00:18:27.133Z,20.4950
2023-03-16T00:18:38.162Z,20.4800
2023-03-16T00:18:49.296Z,20.4850
2023-03-16T00:19:00.358Z,20.4750
2023-03-16T00:19:11.418Z,20.4750
2023-03-16T00:19:22.453Z,20.4930
2023-03-16T00:19:33.541Z,20.4830
2023-03-16T00:19:44.625Z,20.4880
2023-03-16T00:19:55.783Z,20.4800
2023-03-16T00:20:06.845Z,20.4850
2023-03-16T00:20:17.942Z,20.4900
2023-03-16T00:20:29.360Z,20.4800
2023-03-16T00:20:40.569Z,20.4800
2023-03-16T00:20:51.612Z,20.4750
2023-03-16T00:21:02.690Z,20.4750
2023-03-16T00:21:13.756Z,20.4630
2023-03-16T00:21:24.833Z,20.4680
2023-03-16T00:21:35.879Z,20.4780
2023-03-16T00:21:46.956Z,20.4630
2023-03-16T00:21:58.011Z,20.4630
2023-03-16T00:22:09.070Z,20.4430
2023-03-16T00:22:20.186Z,20.4380
2023-03-16T00:22:31.232Z,20.4270
2023-03-16T00:22:42.294Z,20.4270
2023-03-16T00:22:53.372Z,20.4160
2023-03-16T00:23:04.439Z,20.4380
2023-03-16T00:23:15.512Z,20.4220
2023-03-16T00:23:26.567Z,20.4220
2023-03-16T00:23:37.715Z,20.4270
2023-03-16T00:23:48.753Z,20.4180
2023-03-16T00:23:59.814Z,20.4140
2023-03-16T00:24:10.879Z,20.4140
2023-03-16T00:24:21.971Z,20.4140
2023-03-16T00:24:33.040Z,20.4140
2023-03-16T00:24:44.169Z,20.4080
2023-03-16T00:24:55.200Z,20.4140
2023-03-16T00:25:06.276Z,20.4180
2023-03-16T00:25:17.342Z,20.4140
2023-03-16T00:25:28.451Z,20.3920
2023-03-16T00:25:39.483Z,20.3870
2023-03-16T00:25:50.519Z,20.3920
2023-03-16T00:26:01.608Z,20.3920
2023-03-16T00:26:12.690Z,20.3920
2023-03-16T00:26:23.831Z,20.3920
2023-03-16T00:26:34.916Z,20.3920
2023-03-16T00:26:46.018Z,20.3620
2023-03-16T00:26:57.045Z,20.3870
2023-03-16T00:27:08.177Z,20.3720
2023-03-16T00:27:19.249Z,20.3820
2023-03-16T00:27:30.293Z,20.3920
2023-03-16T00:27:41.369Z,20.3970
2023-03-16T00:27:52.538Z,20.4020
2023-03-16T00:28:03.589Z,20.3970
2023-03-16T00:28:14.661Z,20.3920
2023-03-16T00:28:25.742Z,20.3870
2023-03-16T00:28:36.813Z,20.3770
2023-03-16T00:28:47.853Z,20.3570
2023-03-16T00:28:58.921Z,20.3520
2023-03-16T00:29:09.969Z,20.3420
2023-03-16T00:29:21.040Z,20.3420
2023-03-16T00:29:32.146Z,20.3520
2023-03-16T00:29:43.207Z,20.3570
2023-03-16T00:29:54.272Z,20.3520
2023-03-16T00:30:05.320Z,20.3520
2023-03-16T00:30:16.420Z,20.3570
2023-03-16T00:30:27.739Z,20.3420
2023-03-16T00:30:39.018Z,20.3570
2023-03-16T00:30:50.095Z,20.3520
2023-03-16T00:31:01.188Z,20.3260
2023-03-16T00:31:12.284Z,20.3420
2023-03-16T00:31:23.328Z,20.3470
2023-03-16T00:31:34.417Z,20.3370
2023-03-16T00:31:45.567Z,20.3320
2023-03-16T00:31:56.704Z,20.3420
2023-03-16T00:32:07.772Z,20.3420
2023-03-16T00:32:18.833Z,20.3210
2023-03-16T00:32:29.984Z,20.3210
2023-03-16T00:32:41.056Z,20.3370
2023-03-16T00:32:52.206Z,20.3620
2023-03-16T00:33:03.365Z,20.3420
2023-03-16T00:33:14.429Z,20.3470
2023-03-16T00:33:25.467Z,20.3470
2023-03-16T00:33:36.514Z,20.3260
2023-03-16T00:33:47.596Z,20.3150
2023-03-16T00:33:58.672Z,20.3150
2023-03-16T00:34:09.732Z,20.3150
2023-03-16T00:34:20.770Z,20.3260
2023-03-16T00:34:31.852Z,20.3110
2023-03-16T00:34:42.946Z,20.3110
2023-03-16T00:34:54.001Z,20.3210
2023-03-16T00:35:05.242Z,20.3150
2023-03-16T00:35:17.385Z,20.3520
2023-03-16T00:35:28.447Z,20.3520
2023-03-16T00:35:39.585Z,20.3470
2023-03-16T00:35:50.657Z,20.3420
2023-03-16T00:36:01.739Z,20.3260
2023-03-16T00:36:12.862Z,20.3260
2023-03-16T00:36:23.978Z,20.3210
2023-03-16T00:36:35.044Z,20.3110
2023-03-16T00:36:46.155Z,20.3110
2023-03-16T00:36:57.194Z,20.3150
2023-03-16T00:37:08.293Z,20.3110
2023-03-16T00:37:19.492Z,20.3110
2023-03-16T00:37:30.608Z,20.3150
2023-03-16T00:37:41.689Z,20.3320
2023-03-16T00:37:52.820Z,20.3340
2023-03-16T00:38:03.892Z,20.3150
2023-03-16T00:38:14.942Z,20.3050
2023-03-16T00:38:26.001Z,20.3080
2023-03-16T00:38:37.066Z,20.3340
2023-03-16T00:38:48.151Z,20.3340
2023-03-16T00:38:59.223Z,20.3180
2023-03-16T00:39:10.290Z,20.3180
2023-03-16T00:39:21.343Z,20.3290
2023-03-16T00:39:32.411Z,20.3130
2023-03-16T00:39:43.483Z,20.3230
2023-03-16T00:39:54.579Z,20.3390
2023-03-16T00:40:05.628Z,20.3180
2023-03-16T00:40:16.707Z,20.3180
2023-03-16T00:40:27.945Z,20.3230
2023-03-16T00:40:39.114Z,20.3290
2023-03-16T00:40:50.213Z,20.3180
2023-03-16T00:41:01.270Z,20.3130
2023-03-16T00:41:12.335Z,20.3030
2023-03-16T00:41:23.411Z,20.3080
2023-03-16T00:41:34.483Z,20.2920
2023-03-16T00:41:45.542Z,20.2870
2023-03-16T00:41:56.694Z,20.2870
2023-03-16T00:42:07.752Z,20.2820
2023-03-16T00:42:18.846Z,20.2770
2023-03-16T00:42:29.923Z,20.2670
2023-03-16T00:42:41.003Z,20.2870
2023-03-16T00:42:52.045Z,20.2820
2023-03-16T00:43:03.104Z,20.2870
2023-03-16T00:43:14.229Z,20.3030
2023-03-16T00:43:25.288Z,20.2920
2023-03-16T00:43:36.375Z,20.2770
2023-03-16T00:43:47.421Z,20.2820
2023-03-16T00:43:58.502Z,20.2750
2023-03-16T00:44:09.566Z,20.2800
2023-03-16T00:44:20.637Z,20.2770
2023-03-16T00:44:31.745Z,20.2770
2023-03-16T00:44:42.829Z,20.2750
2023-03-16T00:44:53.884Z,20.2700
2023-03-16T00:45:04.957Z,20.2700
2023-03-16T00:45:15.998Z,20.2700
2023-03-16T00:45:27.081Z,20.2650
2023-03-16T00:45:38.141Z,20.2650
2023-03-16T00:45:49.305Z,20.2750
2023-03-16T00:46:00.412Z,20.2650
2023-03-16T00:46:11.694Z,20.2700
2023-03-16T00:46:23.004Z,20.2800
2023-03-16T00:46:34.095Z,20.3050
2023-03-16T00:46:45.195Z,20.3000
2023-03-16T00:46:56.252Z,20.3000
2023-03-16T00:47:07.362Z,20.2950
2023-03-16T00:47:18.431Z,20.2850
2023-03-16T00:47:29.506Z,20.3050
2023-03-16T00:47:40.604Z,20.2900
2023-03-16T00:47:51.651Z,20.2950
2023-03-16T00:48:02.674Z,20.2750
2023-03-16T00:48:13.753Z,20.2750
2023-03-16T00:48:24.831Z,20.2700
2023-03-16T00:48:35.884Z,20.2750
2023-03-16T00:48:46.970Z,20.2820
2023-03-16T00:48:58.052Z,20.2820
2023-03-16T00:49:09.130Z,20.2870
2023-03-16T00:49:20.190Z,20.2920
2023-03-16T00:49:31.279Z,20.2920
2023-03-16T00:49:42.369Z,20.2870
2023-03-16T00:49:53.391Z,20.2770
2023-03-16T00:50:04.470Z,20.2820
2023-03-16T00:50:15.626Z,20.2620
2023-03-16T00:50:27.016Z,20.2720
2023-03-16T00:50:38.319Z,20.2720
2023-03-16T00:50:49.386Z,20.2620
2023-03-16T00:51:00.460Z,20.2770
2023-03-16T00:51:11.515Z,20.2570
2023-03-16T00:51:22.584Z,20.2540
2023-03-16T00:51:33.748Z,20.2540
2023-03-16T00:51:44.823Z,20.2600
2023-03-16T00:51:55.890Z,20.2600
2023-03-16T00:52:06.941Z,20.2540
2023-03-16T00:52:18.006Z,20.2490
2023-03-16T00:52:29.066Z,20.2470
2023-03-16T00:52:40.265Z,20.2420
2023-03-16T00:52:51.313Z,20.2320
2023-03-16T00:53:02.376Z,20.2340
2023-03-16T00:53:13.430Z,20.2340
2023-03-16T00:53:24.502Z,20.2290
2023-03-16T00:53:35.567Z,20.2290
2023-03-16T00:53:46.640Z,20.2340
2023-03-16T00:53:57.673Z,20.2390
2023-03-16T00:54:08.739Z,20.2390
2023-03-16T00:54:19.833Z,20.2290
2023-03-16T00:54:30.875Z,20.2180
2023-03-16T00:54:41.962Z,20.2340
2023-03-16T00:54:53.028Z,20.2290
2023-03-16T00:55:04.130Z,20.2340
2023-03-16T00:55:15.166Z,20.2440
2023-03-16T00:55:26.241Z,20.2490
2023-03-16T00:55:37.260Z,20.2440
2023-03-16T00:55:48.348Z,20.2650
2023-03-16T00:55:59.442Z,20.2440
2023-03-16T00:56:10.547Z,20.2440
2023-03-16T00:56:21.610Z,20.2440
2023-03-16T00:56:32.661Z,20.2490
2023-03-16T00:56:43.743Z,20.2490
2023-03-16T00:56:54.791Z,20.2440
2023-03-16T00:57:05.856Z,20.2440
2023-03-16T00:57:16.942Z,20.2490
2023-03-16T00:57:28.017Z,20.2540
2023-03-16T00:57:39.093Z,20.2440
2023-03-16T00:57:50.165Z,20.2390
2023-03-16T00:58:01.228Z,20.2390
2023-03-16T00:58:12.286Z,20.2340
2023-03-16T00:58:23.366Z,20.2390
2023-03-16T00:58:34.441Z,20.2320
2023-03-16T00:58:45.526Z,20.2200
2023-03-16T00:58:56.605Z,20.2320
2023-03-16T00:59:07.675Z,20.2320
2023-03-16T00:59:18.715Z,20.2320
2023-03-16T00:59:29.772Z,20.2100
2023-03-16T00:59:40.829Z,20.2370
2023-03-16T00:59:51.858Z,20.2370
2023-03-16T01:00:02.960Z,20.2620
2023-03-16T01:00:14.010Z,20.2720
2023-03-16T01:00:25.334Z,20.2570
2023-03-16T01:00:36.710Z,20.2570
2023-03-16T01:00:47.890Z,20.2520
2023-03-16T01:00:58.974Z,20.2470
2023-03-16T01:01:10.076Z,20.2370
2023-03-16T01:01:21.230Z,20.2420
2023-03-16T01:01:32.364Z,20.2420
2023-03-16T01:01:43.422Z,20.2520
2023-03-16T01:01:54.477Z,20.2470
2023-03-16T01:02:05.567Z,20.2570
2023-03-16T01:02:16.645Z,20.2570
2023-03-16T01:02:27.681Z,20.2320
2023-03-16T01:02:38.747Z,20.2420
2023-03-16T01:02:49.847Z,20.2420
2023-03-16T01:03:00.925Z,20.2370
2023-03-16T01:03:12.046Z,20.2320
2023-03-16T01:03:23.158Z,20.2200
2023-03-16T01:03:34.362Z,20.2200
2023-03-16T01:03:45.438Z,20.2050
2023-03-16T01:03:56.494Z,20.2000
2023-03-16T01:04:07.561Z,20.2050
2023-03-16T01:04:18.610Z,20.2160
2023-03-16T01:04:29.659Z,20.2370
2023-03-16T01:04:40.765Z,20.2420
2023-03-16T01:04:51.915Z,20.2470
2023-03-16T01:05:03.006Z,20.2520
2023-03-16T01:05:14.072Z,20.2420
2023-03-16T01:05:25.152Z,20.2420
2023-03-16T01:05:36.300Z,20.2520
2023-03-16T01:05:47.349Z,20.2420
2023-03-16T01:05:58.416Z,20.2370
2023-03-16T01:06:09.484Z,20.2270
2023-03-16T01:06:20.600Z,20.2270
2023-03-16T01:06:31.728Z,20.2200
2023-03-16T01:06:42.790Z,20.2270
2023-03-16T01:06:53.869Z,20.2200
2023-03-16T01:07:04.947Z,20.2420
2023-03-16T01:07:16.040Z,20.2320
2023-03-16T01:07:27.100Z,20.2470
2023-03-16T01:07:38.188Z,20.2470
2023-03-16T01:07:49.254Z,20.2420
2023-03-16T01:08:00.303Z,20.2370
2023-03-16T01:08:11.411Z,20.2270
2023-03-16T01:08:22.472Z,20.2270
2023-03-16T01:08:33.593Z,20.2270
2023-03-16T01:08:44.693Z,20.2420
2023-03-16T01:08:55.748Z,20.2370
2023-03-16T01:09:06.802Z,20.2320
2023-03-16T01:09:17.880Z,20.2420
2023-03-16T01:09:28.934Z,20.2420
2023-03-16T01:09:40.004Z,20.2370
2023-03-16T01:09:51.103Z,20.2320
2023-03-16T01:10:02.164Z,20.2320
2023-03-16T01:10:13.252Z,20.2420
2023-03-16T01:10:31.286Z,20.2420
2023-03-16T01:10:49.860Z,20.3700
2023-03-16T01:11:00.923Z,20.4080
2023-03-16T01:11:19.487Z,20.3350
2023-03-16T01:11:30.526Z,20.3960
2023-03-16T01:11:41.632Z,20.3300
2023-03-16T01:11:52.749Z,20.2890
2023-03-16T01:12:03.793Z,20.2650
2023-03-16T01:12:14.864Z,20.2540
2023-03-16T01:12:25.932Z,20.2440
2023-03-16T01:12:37.011Z,20.2600
2023-03-16T01:12:48.125Z,20.2650
2023-03-16T01:12:59.183Z,20.2540
2023-03-16T01:13:10.252Z,20.2520
2023-03-16T01:13:21.298Z,20.2520
2023-03-16T01:13:32.373Z,20.2570
2023-03-16T01:13:43.431Z,20.2570
2023-03-16T01:13:54.524Z,20.2570
2023-03-16T01:14:05.585Z,20.2420
2023-03-16T01:14:16.649Z,20.2420
2023-03-16T01:14:27.737Z,20.2370
2023-03-16T01:14:38.800Z,20.2320
2023-03-16T01:14:49.924Z,20.2320
2023-03-16T01:15:01.003Z,20.2570
2023-03-16T01:15:12.064Z,20.2470
2023-03-16T01:15:23.112Z,20.2520
2023-03-16T01:15:34.254Z,20.2470
2023-03-16T01:15:45.324Z,20.2620
2023-03-16T01:15:56.363Z,20.2570
2023-03-16T01:16:07.435Z,20.2470
2023-03-16T01:16:18.523Z,20.2470
2023-03-16T01:16:29.613Z,20.2420
2023-03-16T01:16:40.708Z,20.2370
2023-03-16T01:16:51.818Z,20.2370
2023-03-16T01:17:03.057Z,20.2420
2023-03-16T01:17:14.158Z,20.2570
2023-03-16T01:17:25.242Z,20.2620
2023-03-16T01:17:36.312Z,20.2670
2023-03-16T01:17:47.377Z,20.2720
2023-03-16T01:17:58.475Z,20.2420
2023-03-16T01:18:09.534Z,20.2370
2023-03-16T01:18:20.580Z,20.2320
2023-03-16T01:18:31.620Z,20.2370
2023-03-16T01:18:42.708Z,20.2370
2023-03-16T01:18:53.848Z,20.2370
2023-03-16T01:19:04.861Z,20.2370
2023-03-16T01:19:15.921Z,20.2470
2023-03-16T01:19:26.967Z,20.2570
2023-03-16T01:19:38.034Z,20.2520
2023-03-16T01:19:49.091Z,20.2470
2023-03-16T01:20:00.159Z,20.2420
2023-03-16T01:20:11.224Z,20.2370
2023-03-16T01:20:22.289Z,20.2520
2023-03-16T01:20:33.380Z,20.2520
2023-03-16T01:20:44.455Z,20.2470
2023-03-16T01:20:55.536Z,20.2320
2023-03-16T01:21:06.611Z,20.2320
2023-03-16T01:21:17.648Z,20.2160
2023-03-16T01:21:28.702Z,20.2270
2023-03-16T01:21:39.780Z,20.2100
2023-03-16T01:21:50.821Z,20.2200
2023-03-16T01:22:01.932Z,20.2050
2023-03-16T01:22:13.038Z,20.2160
2023-03-16T01:22:24.092Z,20.2200
2023-03-16T01:22:35.113Z,20.2320
2023-03-16T01:22:46.186Z,20.2370
2023-03-16T01:22:57.252Z,20.2420
2023-03-16T01:23:08.326Z,20.2370
2023-03-16T01:23:19.405Z,20.2420
2023-03-16T01:23:30.487Z,20.2520
2023-03-16T01:23:41.533Z,20.2420
2023-03-16T01:23:52.587Z,20.2470
2023-03-16T01:24:03.665Z,20.2470
2023-03-16T01:24:14.703Z,20.2620
2023-03-16T01:24:25.792Z,20.2520
2023-03-16T01:24:36.845Z,20.2470
2023-03-16T01:24:47.939Z,20.2320
2023-03-16T01:24:58.986Z,20.2320
2023-03-16T01:25:10.076Z,20.2320
2023-03-16T01:25:21.149Z,20.2420
2023-03-16T01:25:32.187Z,20.2470
2023-03-16T01:25:43.250Z,20.2470
2023-03-16T01:25:54.315Z,20.2420
2023-03-16T01:26:05.385Z,20.2370
2023-03-16T01:26:16.464Z,20.2570
2023-03-16T01:26:27.539Z,20.2720
2023-03-16T01:26:38.560Z,20.2670
2023-03-16T01:26:49.644Z,20.2620
2023-03-16T01:27:00.718Z,20.2670
2023-03-16T01:27:11.812Z,20.2470
2023-03-16T01:27:22.872Z,20.2370
2023-03-16T01:27:33.953Z,20.2370
2023-03-16T01:27:45.003Z,20.2370
2023-03-16T01:27:56.038Z,20.2370
2023-03-16T01:28:07.138Z,20.2370
2023-03-16T01:28:18.226Z,20.2470
2023-03-16T01:28:29.305Z,20.2520
2023-03-16T01:28:40.368Z,20.2470
2023-03-16T01:28:51.444Z,20.2470
2023-03-16T01:29:02.474Z,20.2370
2023-03-16T01:29:13.598Z,20.2520
2023-03-16T01:29:24.781Z,20.2470
2023-03-16T01:29:35.859Z,20.2480
2023-03-16T01:29:46.926Z,20.2200
2023-03-16T01:29:57.974Z,20.2270
2023-03-16T01:30:09.045Z,20.2370
2023-03-16T01:30:20.157Z,20.2320
2023-03-16T01:30:31.288Z,20.2270
2023-03-16T01:30:42.388Z,20.2320
2023-03-16T01:30:53.495Z,20.2200
2023-03-16T01:31:04.620Z,20.2200
2023-03-16T01:31:15.798Z,20.2200
2023-03-16T01:31:26.877Z,20.2370
2023-03-16T01:31:37.955Z,20.2420
2023-03-16T01:31:49.004Z,20.2320
2023-03-16T01:32:00.053Z,20.2420
2023-03-16T01:32:11.121Z,20.2370
2023-03-16T01:32:22.215Z,20.2420
2023-03-16T01:32:33.333Z,20.2370
2023-03-16T01:32:44.416Z,20.2430
2023-03-16T01:32:55.545Z,20.2430
2023-03-16T01:33:06.635Z,20.2330
2023-03-16T01:33:17.708Z,20.2280
2023-03-16T01:33:28.766Z,20.2220
2023-03-16T01:33:39.834Z,20.2200
2023-03-16T01:33:50.897Z,20.2270
2023-03-16T01:34:01.958Z,20.2160
2023-03-16T01:34:13.007Z,20.2270
2023-03-16T01:34:24.073Z,20.2370
2023-03-16T01:34:35.172Z,20.2380
2023-03-16T01:34:46.236Z,20.2280
2023-03-16T01:34:57.282Z,20.2280
2023-03-16T01:35:08.373Z,20.2220
2023-03-16T01:35:19.441Z,20.2170
2023-03-16T01:35:30.596Z,20.2070
2023-03-16T01:35:41.698Z,20.2280
2023-03-16T01:35:52.824Z,20.2330
2023-03-16T01:36:03.934Z,20.2330
2023-03-16T01:36:15.016Z,20.2380
2023-03-16T01:36:26.132Z,20.2170
2023-03-16T01:36:37.189Z,20.2220
2023-03-16T01:36:48.255Z,20.2480
2023-03-16T01:36:59.290Z,20.2240
2023-03-16T01:37:10.371Z,20.2130
2023-03-16T01:37:21.434Z,20.2240
2023-03-16T01:37:32.532Z,20.2080
2023-03-16T01:37:43.554Z,20.2240
2023-03-16T01:37:54.646Z,20.2340
2023-03-16T01:38:05.733Z,20.2290
2023-03-16T01:38:16.808Z,20.2290
2023-03-16T01:38:27.873Z,20.2240
2023-03-16T01:38:38.936Z,20.2280
2023-03-16T01:38:50.034Z,20.2170
2023-03-16T01:39:01.136Z,20.2220
2023-03-16T01:39:12.163Z,20.2280
2023-03-16T01:39:23.223Z,20.2220
2023-03-16T01:39:34.290Z,20.2220
2023-03-16T01:39:45.356Z,20.2330
2023-03-16T01:39:56.426Z,20.2330
2023-03-16T01:40:07.485Z,20.2220
2023-03-16T01:40:18.580Z,20.2280
2023-03-16T01:40:30.001Z,20.2330
2023-03-16T01:40:41.212Z,20.2330
2023-03-16T01:40:52.301Z,20.2480
2023-03-16T01:41:03.377Z,20.2430
2023-03-16T01:41:14.475Z,20.2330
2023-03-16T01:41:25.565Z,20.2340
2023-03-16T01:41:36.617Z,20.2390
2023-03-16T01:41:47.678Z,20.2460
2023-03-16T01:41:58.771Z,20.2410
2023-03-16T01:42:09.814Z,20.2420
2023-03-16T01:42:20.892Z,20.2370
2023-03-16T01:42:31.943Z,20.2200
2023-03-16T01:42:43.045Z,20.2200
2023-03-16T01:42:54.135Z,20.2310
2023-03-16T01:43:05.204Z,20.2050
2023-03-16T01:43:16.264Z,20.2100
2023-03-16T01:43:27.312Z,20.2000
2023-03-16T01:43:38.414Z,20.2050
2023-03-16T01:43:49.453Z,20.2090
2023-03-16T01:44:00.522Z,20.2140
2023-03-16T01:44:11.589Z,20.2080
2023-03-16T01:44:22.694Z,20.2250
2023-03-16T01:44:33.751Z,20.2250
2023-03-16T01:44:44.823Z,20.2190
2023-03-16T01:44:55.915Z,20.2190
2023-03-16T01:45:06.954Z,20.2140
2023-03-16T01:45:18.008Z,20.2150
2023-03-16T01:45:29.062Z,20.2100
2023-03-16T01:45:40.193Z,20.2200
2023-03-16T01:45:51.289Z,20.2150
2023-03-16T01:46:02.461Z,20.2200
2023-03-16T01:46:13.668Z,20.2150
2023-03-16T01:46:24.805Z,20.2200
2023-03-16T01:46:35.938Z,20.2310
2023-03-16T01:46:47.017Z,20.2250
2023-03-16T01:46:58.076Z,20.2300
2023-03-16T01:47:09.118Z,20.2350
2023-03-16T01:47:20.193Z,20.2460
2023-03-16T01:47:31.280Z,20.2350
2023-03-16T01:47:42.312Z,20.2250
2023-03-16T01:47:53.423Z,20.2250
2023-03-16T01:48:04.492Z,20.2090
2023-03-16T01:48:15.615Z,20.2190
2023-03-16T01:48:26.713Z,20.2200
2023-03-16T01:48:37.744Z,20.2050
2023-03-16T01:48:48.844Z,20.2050
2023-03-16T01:48:59.910Z,20.2150
2023-03-16T01:49:10.933Z,20.2200
2023-03-16T01:49:22.003Z,20.2100
2023-03-16T01:49:33.067Z,20.2050
2023-03-16T01:49:44.145Z,20.2100
2023-03-16T01:49:55.209Z,20.2040
2023-03-16T01:50:06.267Z,20.1940
2023-03-16T01:50:17.332Z,20.1980
2023-03-16T01:50:28.851Z,20.2070
2023-03-16T01:50:40.234Z,20.2220
2023-03-16T01:50:51.290Z,20.2380
2023-03-16T01:51:03.630Z,20.2280
2023-03-16T01:51:15.745Z,20.2840
2023-03-16T01:51:26.823Z,20.2620
2023-03-16T01:51:37.868Z,20.2580
2023-03-16T01:51:48.911Z,20.2630
2023-03-16T01:52:00.000Z,20.2630
2023-03-16T01:52:11.096Z,20.2680
2023-03-16T01:52:22.172Z,20.2800
2023-03-16T01:52:33.257Z,20.2650
2023-03-16T01:52:44.282Z,20.2560
2023-03-16T01:52:55.387Z,20.2410
2023-03-16T01:53:06.433Z,20.2410
2023-03-16T01:53:17.596Z,20.2310
2023-03-16T01:53:28.632Z,20.2370
2023-03-16T01:53:39.693Z,20.2310
2023-03-16T01:53:50.754Z,20.2270
2023-03-16T01:54:01.813Z,20.2310
2023-03-16T01:54:12.874Z,20.2200
2023-03-16T01:54:23.913Z,20.2270
2023-03-16T01:54:34.989Z,20.2200
2023-03-16T01:54:46.049Z,20.2310
2023-03-16T01:54:57.142Z,20.2200
2023-03-16T01:55:08.176Z,20.2270
2023-03-16T01:55:19.243Z,20.2270
2023-03-16T01:55:30.274Z,20.2200
2023-03-16T01:55:41.353Z,20.2310
2023-03-16T01:55:52.384Z,20.2270
2023-03-16T01:56:03.439Z,20.2380
2023-03-16T01:56:14.502Z,20.2220
2023-03-16T01:56:25.549Z,20.2220
2023-03-16T01:56:36.691Z,20.2220
2023-03-16T01:56:47.754Z,20.2200
2023-03-16T01:56:58.829Z,20.2050
2023-03-16T01:57:09.917Z,20.2150
2023-03-16T01:57:20.979Z,20.2200
2023-03-16T01:57:32.048Z,20.2270
2023-03-16T01:57:43.183Z,20.2200
2023-03-16T01:57:54.239Z,20.2270
2023-03-16T01:58:05.329Z,20.2270
2023-03-16T01:58:16.384Z,20.2420
2023-03-16T01:58:27.443Z,20.2310
2023-03-16T01:58:38.502Z,20.2270
2023-03-16T01:58:49.558Z,20.2200
2023-03-16T01:59:00.636Z,20.2090
2023-03-16T01:59:11.710Z,20.2190
2023-03-16T01:59:22.775Z,20.2190
2023-03-16T01:59:33.842Z,20.2090
2023-03-16T01:59:44.914Z,20.2130
2023-03-16T01:59:55.984Z,20.2080
2023-03-16T02:00:07.044Z,20.2130
2023-03-16T02:00:18.222Z,20.2250
2023-03-16T02:00:29.874Z,20.2250
2023-03-16T02:00:41.514Z,20.2350
2023-03-16T02:00:52.563Z,20.2140
2023-03-16T02:01:03.697Z,20.2090
2023-03-16T02:01:14.779Z,20.2090
2023-03-16T02:01:25.906Z,20.2030
2023-03-16T02:01:36.998Z,20.2130
2023-03-16T02:01:48.108Z,20.2240
2023-03-16T02:01:59.276Z,20.2340
2023-03-16T02:02:10.337Z,20.2250
2023-03-16T02:02:21.422Z,20.2390
2023-03-16T02:02:32.490Z,20.2410
2023-03-16T02:02:43.647Z,20.2350
2023-03-16T02:02:54.767Z,20.2370
2023-03-16T02:03:05.884Z,20.2310
2023-03-16T02:03:16.956Z,20.2270
2023-03-16T02:03:28.009Z,20.2100
2023-03-16T02:03:39.090Z,20.2050
2023-03-16T02:03:50.150Z,20.2050
2023-03-16T02:04:01.274Z,20.2000
2023-03-16T02:04:12.465Z,20.2190
2023-03-16T02:04:23.677Z,20.2190
2023-03-16T02:04:35.203Z,20.2350
2023-03-16T02:04:46.311Z,20.2350
2023-03-16T02:04:57.835Z,20.2370
2023-03-16T02:05:08.903Z,20.2310
2023-03-16T02:05:20.001Z,20.2050
2023-03-16T02:05:31.096Z,20.2100
2023-03-16T02:05:42.177Z,20.2270
2023-03-16T02:05:53.202Z,20.2370
2023-03-16T02:06:04.291Z,20.2150
2023-03-16T02:06:15.387Z,20.2050
2023-03-16T02:06:26.450Z,20.2200
2023-03-16T02:06:37.527Z,20.2050
2023-03-16T02:06:48.590Z,20.2050
2023-03-16T02:06:59.665Z,20.2090
2023-03-16T02:07:10.964Z,20.2090
2023-03-16T02:07:22.025Z,20.2240
2023-03-16T02:07:33.087Z,20.2170
2023-03-16T02:07:44.125Z,20.2280
2023-03-16T02:07:55.194Z,20.2220
2023-03-16T02:08:06.289Z,20.2220
2023-03-16T02:08:17.343Z,20.2330
2023-03-16T02:08:28.407Z,20.2280
2023-03-16T02:08:39.510Z,20.2330
2023-03-16T02:08:50.584Z,20.2380
2023-03-16T02:09:01.619Z,20.2330
2023-03-16T02:09:12.685Z,20.2280
2023-03-16T02:09:23.803Z,20.2380
2023-03-16T02:09:34.862Z,20.2380
2023-03-16T02:09:45.922Z,20.2430
2023-03-16T02:09:57.017Z,20.2530
2023-03-16T02:10:08.082Z,20.2280
2023-03-16T02:10:19.145Z,20.2430
2023-03-16T02:10:30.756Z,20.2330
2023-03-16T02:10:41.989Z,20.2480
2023-03-16T02:10:53.231Z,20.2480
2023-03-16T02:11:04.252Z,20.2530
2023-03-16T02:11:15.326Z,20.2480
2023-03-16T02:11:26.403Z,20.2530
2023-03-16T02:11:37.476Z,20.2380
2023-03-16T02:11:48.536Z,20.2430
2023-03-16T02:11:59.593Z,20.2380
2023-03-16T02:12:10.716Z,20.2280
2023-03-16T02:12:21.772Z,20.2330
2023-03-16T02:12:32.823Z,20.2220
2023-03-16T02:12:43.905Z,20.2220
2023-03-16T02:12:54.946Z,20.2280
2023-03-16T02:13:06.022Z,20.2220
2023-03-16T02:13:17.113Z,20.2380
2023-03-16T02:13:28.221Z,20.2380
2023-03-16T02:13:39.291Z,20.2280
2023-03-16T02:13:50.377Z,20.2170
2023-03-16T02:14:01.449Z,20.2120
2023-03-16T02:14:12.496Z,20.2170
2023-03-16T02:14:23.564Z,20.2170
2023-03-16T02:14:34.643Z,20.2280
2023-03-16T02:14:45.725Z,20.2330
2023-03-16T02:14:56.758Z,20.2330